createdAt,value
2018-07-26T05:33:12.450Z,3.27
2018-07-26T05:35:42.049Z,3.30
2018-07-26T05:38:10.629Z,3.10
2018-07-26T05:40:39.594Z,3.30
2018-07-26T05:43:08.209Z,2.97
2018-07-26T05:45:36.794Z,3.20
2018-07-26T05:48:06.353Z,2.80
2018-07-26T05:50:34.577Z,2.70
2018-07-26T05:53:03.190Z,3.30
2018-07-26T05:55:31.807Z,3.00
2018-07-26T05:58:01.471Z,3.20
2018-07-26T06:00:30.078Z,2.50
2018-07-26T06:02:58.686Z,2.80
2018-07-26T06:05:27.271Z,2.30
2018-07-26T06:07:55.867Z,2.70
2018-07-26T06:10:25.091Z,2.70
2018-07-26T06:12:54.167Z,2.67
2018-07-26T06:15:22.383Z,2.97
2018-07-26T06:17:51.674Z,2.80
2018-07-26T06:20:20.264Z,2.70
2018-07-26T06:22:48.887Z,2.60
2018-07-26T06:25:17.515Z,2.73
2018-07-26T06:27:46.189Z,2.70
2018-07-26T06:30:15.021Z,3.17
2018-07-26T06:32:43.644Z,2.80
2018-07-26T06:35:13.131Z,3.20
2018-07-26T06:37:41.710Z,3.40
2018-07-26T06:40:11.086Z,2.60
2018-07-26T06:42:39.719Z,3.23
2018-07-26T06:45:09.197Z,2.73
2018-07-26T06:47:38.134Z,2.80
2018-07-26T06:50:08.495Z,3.00
2018-07-26T06:52:37.470Z,3.00
2018-07-26T06:55:06.522Z,2.93
2018-07-26T06:57:35.114Z,3.00
2018-07-26T07:00:04.988Z,2.93
2018-07-26T07:02:33.576Z,2.80
2018-07-26T07:05:02.372Z,2.80
2018-07-26T07:07:30.993Z,2.90
2018-07-26T07:10:00.615Z,2.87
2018-07-26T07:12:29.270Z,2.90
2018-07-26T07:14:57.962Z,2.83
2018-07-26T07:17:27.902Z,2.97
2018-07-26T07:19:57.044Z,3.00
2018-07-26T07:22:25.635Z,2.97
2018-07-26T07:24:56.935Z,2.87
2018-07-26T07:27:25.538Z,2.67
2018-07-26T07:29:54.589Z,2.90
2018-07-26T07:32:23.308Z,3.37
2018-07-26T07:34:51.919Z,3.23
2018-07-26T07:37:20.572Z,2.80
2018-07-26T07:39:49.134Z,3.33
2018-07-26T07:42:17.732Z,2.97
2018-07-26T07:44:47.030Z,3.00
2018-07-26T07:47:15.842Z,2.90
2018-07-26T07:49:44.782Z,3.00
2018-07-26T07:52:13.636Z,2.80
2018-07-26T07:54:42.586Z,2.90
2018-07-26T07:57:12.246Z,3.03
2018-07-26T07:59:41.422Z,2.93
2018-07-26T08:02:10.708Z,2.90
2018-07-26T08:04:40.152Z,2.80
2018-07-26T08:07:09.544Z,2.67
2018-07-26T08:09:38.568Z,2.90
2018-07-26T08:12:07.274Z,2.90
2018-07-26T08:14:35.891Z,3.10
2018-07-26T08:17:06.505Z,4.37
2018-07-26T08:19:35.186Z,3.27
2018-07-26T08:22:03.828Z,2.70
2018-07-26T08:24:32.419Z,2.70
2018-07-26T08:27:01.298Z,3.00
2018-07-26T08:29:29.935Z,3.10
2018-07-26T08:32:00.472Z,3.00
2018-07-26T08:34:29.068Z,3.10
2018-07-26T08:36:57.341Z,3.00
2018-07-26T08:39:26.025Z,3.10
2018-07-26T08:41:54.600Z,3.17
2018-07-26T08:44:23.234Z,2.70
2018-07-26T08:46:51.835Z,3.10
2018-07-26T08:49:20.414Z,2.90
2018-07-26T08:51:49.690Z,2.70
2018-07-26T08:54:18.589Z,3.20
2018-07-26T08:56:47.170Z,2.57
2018-07-26T08:59:15.767Z,2.50
2018-07-26T09:01:44.395Z,3.10
2018-07-26T09:04:13.031Z,2.80
2018-07-26T09:06:41.729Z,2.60
2018-07-26T09:09:11.993Z,2.97
2018-07-26T09:11:41.302Z,2.93
2018-07-26T09:14:10.387Z,2.63
2018-07-26T09:16:39.063Z,2.77
2018-07-26T09:19:08.260Z,2.70
2018-07-26T09:25:00.204Z,2.80
2018-07-26T09:27:35.633Z,2.70
2018-07-26T09:30:14.925Z,2.70
2018-07-26T09:33:01.590Z,3.00
2018-07-26T09:35:38.167Z,2.70
2018-07-26T09:41:07.242Z,2.73
2018-07-26T09:43:40.047Z,2.50
2018-07-26T09:51:52.018Z,2.20
2018-07-26T09:54:22.085Z,2.30
2018-07-26T09:56:50.780Z,2.63
2018-07-26T09:59:19.460Z,2.23
2018-07-26T10:01:48.206Z,2.50
2018-07-26T10:04:16.844Z,2.40
2018-07-26T10:06:45.500Z,2.23
2018-07-26T10:09:14.222Z,2.70
2018-07-26T10:11:42.861Z,2.50
2018-07-26T10:14:11.496Z,2.30
2018-07-26T10:16:40.165Z,2.30
2018-07-26T10:19:08.790Z,2.30
2018-07-26T10:21:37.695Z,2.17
2018-07-26T10:24:06.531Z,2.50
2018-07-26T10:26:37.072Z,2.30
2018-07-26T10:29:06.312Z,2.30
2018-07-26T10:31:34.988Z,1.90
2018-07-26T10:34:04.504Z,2.43
2018-07-26T10:36:33.154Z,2.03
2018-07-26T10:39:02.673Z,1.90
2018-07-26T10:41:31.460Z,2.00
2018-07-26T10:44:00.745Z,2.23
2018-07-26T10:46:30.180Z,2.20
2018-07-26T10:49:01.744Z,2.00
2018-07-26T10:51:30.504Z,1.97
2018-07-26T10:53:59.058Z,1.70
2018-07-26T10:56:27.665Z,2.03
2018-07-26T10:58:56.326Z,1.90
2018-07-26T11:01:25.017Z,2.10
2018-07-26T11:03:53.698Z,1.80
2018-07-26T11:06:22.282Z,2.10
2018-07-26T11:08:52.675Z,1.90
2018-07-26T11:11:22.847Z,1.97
2018-07-26T11:13:52.099Z,1.90
2018-07-26T11:16:20.742Z,2.07
2018-07-26T11:18:49.397Z,1.80
2018-07-26T11:21:18.281Z,2.10
2018-07-26T11:23:47.046Z,2.27
2018-07-26T11:26:15.830Z,2.00
2018-07-26T11:28:45.196Z,1.97
2018-07-26T11:31:13.823Z,2.00
2018-07-26T11:33:42.491Z,2.00
2018-07-26T11:36:11.188Z,2.07
2018-07-26T11:38:39.855Z,1.80
2018-07-26T11:41:11.051Z,1.60
2018-07-26T11:43:40.062Z,1.70
2018-07-26T11:46:10.080Z,1.90
2018-07-26T11:48:38.756Z,2.10
2018-07-26T11:51:07.395Z,2.03
2018-07-26T11:53:36.180Z,2.10
2018-07-26T11:56:04.888Z,1.97
2018-07-26T11:58:33.713Z,2.03
2018-07-26T12:01:02.439Z,1.60
2018-07-26T12:03:31.353Z,1.67
2018-07-26T12:06:00.429Z,1.52
2018-07-26T12:08:29.109Z,1.50
2018-07-26T12:10:57.760Z,1.60
2018-07-26T12:13:26.456Z,1.80
2018-07-26T12:15:55.544Z,1.60
2018-07-26T12:18:24.304Z,1.80
2018-07-26T12:20:52.947Z,1.60
2018-07-26T12:23:22.019Z,1.47
2018-07-26T12:25:50.863Z,1.40
2018-07-26T12:28:19.458Z,1.50
2018-07-26T12:30:48.138Z,1.40
2018-07-26T12:33:18.834Z,1.30
2018-07-26T12:35:47.536Z,1.10
2018-07-26T12:38:16.204Z,1.40
2018-07-26T12:40:45.747Z,1.40
2018-07-26T12:43:14.464Z,1.45
2018-07-26T12:45:43.142Z,1.47
2018-07-26T12:48:12.107Z,1.40
2018-07-26T12:50:40.778Z,1.60
2018-07-26T12:53:10.184Z,1.52
2018-07-26T12:55:38.898Z,1.60
2018-07-26T12:58:07.963Z,1.70
2018-07-26T13:00:36.632Z,1.45
2018-07-26T13:03:05.740Z,1.25
2018-07-26T13:05:35.072Z,1.10
2018-07-26T13:08:03.816Z,1.40
2018-07-26T13:10:32.610Z,1.40
2018-07-26T13:13:01.295Z,1.45
2018-07-26T13:15:30.928Z,1.30
2018-07-26T13:17:59.617Z,1.37
2018-07-26T13:20:28.333Z,1.50
2018-07-26T13:22:57.020Z,1.42
2018-07-26T13:25:25.711Z,1.60
2018-07-26T13:27:54.394Z,1.40
2018-07-26T13:30:24.002Z,1.30
2018-07-26T13:32:52.700Z,1.50
2018-07-26T13:35:21.715Z,1.40
2018-07-26T13:37:50.362Z,1.45
2018-07-26T13:40:19.097Z,1.45
2018-07-26T13:42:47.756Z,1.55
2018-07-26T13:45:16.505Z,1.57
2018-07-26T13:47:45.124Z,1.30
2018-07-26T13:50:13.700Z,1.55
2018-07-26T13:52:42.103Z,1.27
2018-07-26T13:55:10.765Z,1.42
2018-07-26T13:57:39.517Z,1.60
2018-07-26T14:00:08.169Z,1.90
2018-07-26T14:02:36.780Z,1.65
2018-07-26T14:05:05.682Z,1.30
2018-07-26T14:07:34.321Z,1.50
2018-07-26T14:10:03.075Z,1.40
2018-07-26T14:12:33.874Z,1.40
2018-07-26T14:15:03.264Z,1.40
2018-07-26T14:17:31.957Z,1.50
2018-07-26T14:20:00.567Z,1.57
2018-07-26T14:22:29.260Z,1.70
2018-07-26T14:25:01.245Z,1.65
2018-07-26T14:27:30.903Z,1.70
2018-07-26T14:29:59.619Z,1.75
2018-07-26T14:32:28.345Z,1.40
2018-07-26T14:34:57.031Z,1.42
2018-07-26T14:37:26.638Z,1.60
2018-07-26T14:39:55.768Z,1.27
2018-07-26T14:42:24.495Z,1.47
2018-07-26T14:44:53.876Z,1.75
2018-07-26T14:47:22.643Z,1.50
2018-07-26T14:49:51.336Z,1.62
2018-07-26T14:52:19.984Z,1.30
2018-07-26T14:54:48.838Z,1.47
2018-07-26T14:57:17.920Z,1.60
2018-07-26T14:59:46.705Z,1.77
2018-07-26T15:02:15.337Z,1.50
2018-07-26T15:04:45.004Z,1.62
2018-07-26T15:07:13.657Z,1.80
2018-07-26T15:09:42.691Z,1.72
2018-07-26T15:12:11.707Z,1.50
2018-07-26T15:14:40.874Z,1.27
2018-07-26T15:17:13.718Z,1.47
2018-07-26T15:19:42.408Z,1.45
2018-07-26T15:22:11.025Z,1.30
2018-07-26T15:24:43.193Z,1.50
2018-07-26T15:27:12.077Z,1.75
2018-07-26T15:29:41.139Z,1.57
2018-07-26T15:32:10.237Z,1.50
2018-07-26T15:34:38.920Z,1.70
2018-07-26T15:37:07.538Z,1.55
2018-07-26T15:39:36.189Z,1.50
2018-07-26T15:42:05.184Z,1.55
2018-07-26T15:44:40.489Z,1.60
2018-07-26T15:47:09.092Z,1.57
2018-07-26T15:49:38.462Z,1.37
2018-07-26T15:52:07.184Z,1.20
2018-07-26T15:54:37.386Z,1.30
2018-07-26T15:57:06.363Z,1.32
2018-07-26T15:59:35.568Z,1.60
2018-07-26T16:02:04.232Z,1.62
2018-07-26T16:04:32.947Z,1.50
2018-07-26T16:07:01.861Z,1.70
2018-07-26T16:09:30.533Z,1.50
2018-07-26T16:12:00.120Z,1.40
2018-07-26T16:14:29.412Z,1.62
2018-07-26T16:16:58.082Z,1.47
2018-07-26T16:19:27.053Z,1.75
2018-07-26T16:21:55.781Z,1.60
2018-07-26T16:24:24.476Z,1.65
2018-07-26T16:26:53.119Z,1.65
2018-07-26T16:29:21.773Z,1.37
2018-07-26T16:31:50.398Z,1.67
2018-07-26T16:34:19.188Z,1.70
2018-07-26T16:36:47.862Z,1.50
2018-07-26T16:39:16.511Z,1.67
2018-07-26T16:41:46.159Z,1.50
2018-07-26T16:44:14.762Z,1.50
2018-07-26T16:46:43.359Z,1.65
2018-07-26T16:49:11.992Z,1.62
2018-07-26T16:51:41.173Z,1.65
2018-07-26T16:54:10.760Z,1.67
2018-07-26T16:56:39.445Z,1.42
2018-07-26T16:59:08.155Z,1.35
2018-07-26T17:01:36.889Z,1.42
2018-07-26T17:04:05.575Z,1.20
2018-07-26T17:06:34.268Z,1.30
2018-07-26T17:09:03.023Z,1.50
2018-07-26T17:11:31.967Z,1.30
2018-07-26T17:14:00.661Z,1.40
2018-07-26T17:16:29.389Z,1.12
2018-07-26T17:18:58.542Z,1.60
2018-07-26T17:21:28.605Z,1.40
2018-07-26T17:23:57.219Z,1.77
2018-07-26T17:26:25.906Z,1.77
2018-07-26T17:28:54.613Z,1.77
2018-07-26T17:31:23.423Z,2.10
2018-07-26T17:33:52.123Z,1.70
2018-07-26T17:36:20.820Z,1.57
2018-07-26T17:38:49.625Z,1.70
2018-07-26T17:41:18.277Z,1.70
2018-07-26T17:43:46.985Z,1.90
2018-07-26T17:46:15.748Z,1.80
2018-07-26T17:48:44.490Z,1.90
2018-07-26T17:51:13.168Z,2.00
2018-07-26T17:53:41.857Z,2.20
2018-07-26T17:56:10.718Z,2.00
2018-07-26T17:58:39.424Z,2.00
2018-07-26T18:01:08.096Z,1.90
2018-07-26T18:03:36.905Z,1.90
2018-07-26T18:06:05.862Z,1.80
2018-07-26T18:08:34.558Z,1.87
2018-07-26T18:11:03.919Z,1.97
2018-07-26T18:13:32.609Z,2.03
2018-07-26T18:16:01.289Z,2.00
2018-07-26T18:18:29.930Z,2.07
2018-07-26T18:20:58.638Z,1.90
2018-07-26T18:23:28.264Z,1.90
2018-07-26T18:25:56.998Z,1.80
2018-07-26T18:28:25.630Z,2.10
2018-07-26T18:30:54.321Z,1.97
2018-07-26T18:33:23.128Z,1.97
2018-07-26T18:35:52.183Z,2.27
2018-07-26T18:38:20.871Z,2.23
2018-07-26T18:40:49.530Z,2.40
2018-07-26T18:43:18.800Z,2.47
2018-07-26T18:45:49.163Z,2.53
2018-07-26T18:48:18.105Z,2.53
2018-07-26T18:50:47.523Z,2.30
2018-07-26T18:53:16.191Z,2.57
2018-07-26T18:55:45.678Z,2.30
2018-07-26T18:58:14.309Z,2.30
2018-07-26T19:00:42.893Z,2.30
2018-07-26T19:03:11.784Z,2.37
2018-07-26T19:05:40.403Z,2.47
2018-07-26T19:08:12.034Z,2.20
2018-07-26T19:10:40.698Z,2.53
2018-07-26T19:13:09.322Z,2.47
2018-07-26T19:15:37.974Z,2.63
2018-07-26T19:18:06.628Z,2.33
2018-07-26T19:20:35.345Z,2.50
2018-07-26T19:23:04.773Z,2.87
2018-07-26T19:25:33.500Z,2.43
2018-07-26T19:28:02.823Z,2.50
2018-07-26T19:30:31.463Z,2.60
2018-07-26T19:33:00.095Z,2.50
2018-07-26T19:35:30.491Z,2.57
2018-07-26T19:37:59.342Z,2.37
2018-07-26T19:40:27.956Z,2.50
2018-07-26T19:42:56.619Z,3.10
2018-07-26T19:45:26.256Z,2.83
2018-07-26T19:47:55.298Z,3.00
2018-07-26T19:50:23.934Z,3.23
2018-07-26T19:52:54.188Z,2.90
2018-07-26T19:55:22.923Z,3.23
2018-07-26T19:57:51.647Z,3.03
2018-07-26T20:00:21.795Z,3.63
2018-07-26T20:02:50.443Z,3.13
2018-07-26T20:05:19.492Z,3.40
2018-07-26T20:07:49.072Z,2.90
2018-07-26T20:10:17.773Z,3.43
2018-07-26T20:12:46.439Z,3.03
2018-07-26T20:15:16.438Z,3.03
2018-07-26T20:17:45.080Z,3.13
2018-07-26T20:20:13.799Z,3.20
2018-07-26T20:22:42.465Z,3.27
2018-07-26T20:25:11.044Z,3.00
2018-07-26T20:27:39.797Z,3.10
2018-07-26T20:30:10.129Z,2.90
2018-07-26T20:32:38.922Z,3.10
2018-07-26T20:35:08.209Z,3.20
2018-07-26T20:37:37.369Z,2.97
2018-07-26T20:40:07.678Z,2.80
2018-07-26T20:42:36.412Z,2.90
2018-07-26T20:45:06.892Z,2.90
2018-07-26T20:47:37.995Z,2.87
2018-07-26T20:50:07.606Z,2.50
2018-07-26T20:52:41.275Z,2.73
2018-07-26T20:55:10.359Z,2.60
2018-07-26T20:57:39.874Z,3.00
2018-07-26T21:00:11.142Z,2.80
2018-07-26T21:02:40.423Z,2.50
2018-07-26T21:05:09.583Z,2.90
2018-07-26T21:07:38.690Z,3.10
2018-07-26T21:10:09.041Z,3.30
2018-07-26T21:12:37.519Z,2.53
2018-07-26T21:15:07.817Z,2.70
2018-07-26T21:17:36.777Z,3.23
2018-07-26T21:20:05.857Z,3.03
2018-07-26T21:22:34.815Z,3.30
2018-07-26T21:25:04.190Z,2.93
2018-07-26T21:27:32.884Z,2.70
2018-07-26T21:30:06.699Z,2.77
2018-07-26T21:32:36.317Z,2.90
2018-07-26T21:35:06.666Z,3.10
2018-07-26T21:37:35.522Z,2.90
2018-07-26T21:40:05.821Z,2.97
2018-07-26T21:42:39.323Z,2.87
2018-07-26T21:45:09.392Z,3.10
2018-07-26T21:47:41.322Z,2.90
2018-07-26T21:50:15.984Z,2.60
2018-07-26T21:52:44.974Z,2.90
2018-07-26T21:55:16.817Z,3.10
2018-07-26T21:57:47.731Z,2.90
2018-07-26T22:00:17.166Z,3.10
2018-07-26T22:02:45.814Z,3.20
2018-07-26T22:05:18.741Z,2.97
2018-07-26T22:07:47.409Z,3.47
2018-07-26T22:10:21.970Z,2.90
2018-07-26T22:12:55.010Z,3.00
2018-07-26T22:15:24.449Z,3.20
2018-07-26T22:17:53.074Z,3.10
2018-07-26T22:20:21.340Z,3.00
2018-07-26T22:22:50.845Z,3.10
2018-07-26T22:25:19.484Z,3.17
2018-07-26T22:28:02.970Z,3.00
2018-07-26T22:30:31.630Z,3.10
2018-07-26T22:33:00.518Z,3.33
2018-07-26T22:35:29.136Z,3.30
2018-07-26T22:37:57.381Z,3.70
2018-07-26T22:40:26.041Z,3.57
2018-07-26T22:42:54.586Z,3.30
2018-07-26T22:45:23.196Z,3.20
2018-07-26T22:47:51.815Z,3.40
2018-07-26T22:50:20.424Z,3.67
2018-07-26T22:52:49.078Z,3.53
2018-07-26T22:55:19.835Z,3.70
2018-07-26T22:57:48.424Z,3.67
2018-07-26T23:00:17.616Z,3.57
